Wiskowski, David
United StatesManBorn 19772014 – 2024Runner id 532586
Events
45
2014 – 2024
Best pace
10.309
km/h · 2016
Best finish
11th
of 158 · 2018
Distance raced
3,898
km · splits not double-counted
Pace over time
km/h · higher is faster
Pace over time: 45 races from 2014 to 2024, ranging from 2.84 to 10.56 kilometres per hour, where higher is faster. A second, age-graded series is drawn above it; the gap between the two is the age credit.
- Actual pace
- Age-graded pace
Results
| Date | Event | Distance | Result | Pace km/h | Placing |
|---|---|---|---|---|---|
| 2014-01-11 | 50km | 5:47:22 h | 8.636 | 15/66 | |
| 2014-03-22 | 50km | 5:09:25 h | 9.696 | 8/44 | |
| 2014-04-26 | 50km | 5:06:37 h | 9.784 | 11/62 | |
| 2014-05-10 | Ice Age Trail 50 Mile RunUnited States | 50mi | 9:48:03 h | 8.210 | 82/259 |
| 2014-07-12 | 50mi | 10:32:56 h | 7.628 | 24/63 | |
| 2014-07-19 | 24h | 140.222 km | 5.843 | 19/140 | |
| 2014-08-09 | 39mi | 6:50:46 h | 9.168 | 12/30 | |
| 2015-03-14 | 50mi | 11:52:26 h | 6.777 | 52/99 | |
| 2015-03-21 | 50mi | 11:51:21 h | 6.787 | 24/66 | |
| 2015-04-11 | Potawatomi 100 Mile Trail RunUnited States | 100mi | 29:39:33 h | 5.426 | 10/41 |
| 2015-05-02 | 100km | 14:00:00 h | 7.143 | 170/308 | |
| 2015-06-06 | 100mi | 25:35:00 h | 6.291 | 61/164 | |
| 2015-07-12 | 50mi | 12:02:47 h | 6.680 | 248/355 | |
| 2015-07-18 | Lone Ranger 24 hr Urban UltraUnited States | 24h | 68.075 km | 2.836 | 103/128 |
| 2015-11-14 | 50km | 5:23:01 h | 9.287 | 20/52 | |
| 2015-12-05 | 50mi | 10:27:28 h | 7.694 | 224/478 | |
| 2016-04-23 | 50km | 4:54:27 h | 10.188 | 14/101 | |
| 2016-05-07 | 100km | 11:39:05 h | 8.583 | 48/289 | |
| 2016-08-20 | 100mi | 26:13:25 h | 6.137 | 105/340 | |
| 2016-09-24 | 100km | 17:37:00 h | 5.676 | 19/27 | |
| 2016-10-09 | 50km | 4:51:00 h | 10.309 | 11/127 | |
| 2016-11-05 | 8h | 56.327 km | 7.041 | 50/119 | |
| 2016-12-03 | 50mi | 9:02:23 h | 8.902 | 135/537 | |
| 2016-12-29 | 24h | 114.907 km | 4.788 | 7/26 | |
| 2017-01-07 | 50mi | 9:45:28 h | 8.246 | 56/213 | |
| 2017-04-22 | Leona Divide 50 Mile RunUnited States | 50mi | 11:56:25 h | 6.739 | 64/98 |
| 2017-05-06 | Miwok 100k Trail RaceUnited States | 100km | 12:06:32 h | 8.258 | 71/285 |
| 2017-09-23 | 100km | 17:39:53 h | 5.661 | 8/18 | |
| 2017-11-18 | 100mi | 30:41:42 h | 5.243 | 22/40 | |
| 2018-01-20 | Avalon Benefit 50-Mile RunUnited States | 50mi | 8:16:01 h | 9.734 | 11/158 |
| 2018-02-03 | Sean O'Brien 50 Mile Trail RaceUnited States | 50mi | 11:32:20 h | 6.974 | 32/112 |
| 2018-11-17 | 100mi | 27:59:28 h | 5.749 | 2/7 | |
| 2019-06-15 | 33mi | 6:13:14 h | 8.538 | 18/82 | |
| 2019-10-05 | 100km | 14:41:20 h | 6.808 | 65/171 | |
| 2020-02-01 | 50km | 5:52:38 h | 8.507 | 6/56 | |
| 2022-10-08 | 100km | 15:06:38 h | 6.618 | 69/176 | |
| 2023-05-06 | 50km | 5:52:54 h | 8.501 | 13/59 | |
| 2023-10-01 | 100km | 17:36:16 h | 5.680 | 40/56 | |
| 2023-10-08 | 50km | 6:57:25 h | 7.187 | 12/49 | |
| 2023-11-18 | 50mi | 8:16:33 h | 9.723 | 125/932 | |
| 2024-04-20 | 50km | 7:03:59 h | 7.076 | 199/359 | |
| 2024-04-28 | 10h | 51.499 km | 5.150 | 38/72 | |
| 2024-05-04 | 100km | 13:17:36 h | 7.523 | 72/222 | |
| 2024-06-01 | 100km | 16:23:51 h | 6.098 | 39/116 | |
| 2024-11-23 | 50mi | 10:25:49 h | 7.715 | 573/1119 |